createdAt,value
2023-01-21T00:00:58.643Z,18.07
2023-01-21T00:03:25.191Z,19.53
2023-01-21T00:05:51.691Z,19.07
2023-01-21T00:08:18.188Z,20.47
2023-01-21T00:10:44.693Z,19.23
2023-01-21T00:13:11.151Z,20.03
2023-01-21T00:15:37.599Z,19.63
2023-01-21T00:18:04.135Z,19.50
2023-01-21T00:20:30.556Z,19.30
2023-01-21T00:22:57.005Z,21.37
2023-01-21T00:25:23.643Z,20.00
2023-01-21T00:27:50.127Z,18.70
2023-01-21T00:30:17.095Z,19.77
2023-01-21T00:32:43.743Z,18.40
2023-01-21T00:35:10.160Z,20.27
2023-01-21T00:37:36.611Z,19.07
2023-01-21T00:40:05.429Z,20.40
2023-01-21T00:42:31.931Z,18.87
2023-01-21T00:44:58.665Z,21.00
2023-01-21T00:47:25.126Z,19.07
2023-01-21T00:49:51.540Z,20.50
2023-01-21T00:52:17.977Z,18.40
2023-01-21T00:54:44.427Z,21.50
2023-01-21T00:57:10.899Z,19.57
2023-01-21T00:59:37.565Z,19.67
2023-01-21T01:02:03.974Z,19.77
2023-01-21T01:04:30.387Z,19.53
2023-01-21T01:06:57.195Z,19.60
2023-01-21T01:09:23.620Z,19.87
2023-01-21T01:11:50.085Z,19.40
2023-01-21T01:14:16.497Z,18.60
2023-01-21T01:16:42.917Z,18.77
2023-01-21T01:19:10.002Z,20.33
2023-01-21T01:21:36.576Z,19.37
2023-01-21T01:24:03.283Z,19.33
2023-01-21T01:26:29.759Z,19.33
2023-01-21T01:28:56.175Z,19.80
2023-01-21T01:31:22.790Z,20.47
2023-01-21T01:33:49.268Z,20.30
2023-01-21T01:36:20.967Z,19.20
2023-01-21T01:38:47.375Z,19.40
2023-01-21T01:41:22.159Z,19.00
2023-01-21T01:43:53.172Z,19.27
2023-01-21T01:46:20.686Z,19.17
2023-01-21T01:48:51.664Z,20.57
2023-01-21T01:51:21.098Z,18.50
2023-01-21T01:53:48.294Z,19.27
2023-01-21T01:56:15.309Z,18.60
2023-01-21T01:58:42.663Z,18.77
2023-01-21T02:01:09.071Z,19.83
2023-01-21T02:03:49.234Z,19.33
2023-01-21T02:06:17.401Z,19.03
2023-01-21T02:08:47.454Z,19.30
2023-01-21T02:11:18.350Z,18.70
2023-01-21T02:13:47.720Z,20.07
2023-01-21T02:16:26.993Z,19.53
2023-01-21T02:19:18.388Z,18.70
2023-01-21T02:22:03.016Z,19.13
2023-01-21T02:25:08.150Z,20.17
2023-01-21T02:27:57.194Z,18.40
2023-01-21T02:30:46.221Z,18.63
2023-01-21T02:33:25.735Z,16.80
2023-01-21T02:36:08.486Z,17.10
2023-01-21T02:39:10.359Z,16.53
2023-01-21T02:41:46.005Z,17.07
2023-01-21T02:44:33.390Z,17.00
2023-01-21T02:47:07.134Z,16.20
2023-01-21T02:49:42.391Z,15.70
2023-01-21T02:52:17.417Z,16.97
2023-01-21T02:54:55.775Z,14.17
2023-01-21T02:57:50.819Z,16.60
2023-01-21T03:00:19.770Z,15.47
2023-01-21T03:03:09.539Z,15.83
2023-01-21T03:05:58.958Z,16.17
2023-01-21T03:08:31.197Z,15.23
2023-01-21T03:11:13.885Z,15.47
2023-01-21T03:14:02.412Z,14.87
2023-01-21T03:16:51.977Z,14.57
2023-01-21T03:19:19.548Z,15.73
2023-01-21T03:21:46.928Z,14.80
2023-01-21T03:24:14.431Z,15.37
2023-01-21T03:26:44.386Z,14.07
2023-01-21T03:29:15.311Z,14.70
2023-01-21T03:31:43.708Z,14.03
2023-01-21T03:34:11.716Z,14.93
2023-01-21T03:37:03.034Z,13.53
2023-01-21T03:39:40.614Z,14.17
2023-01-21T03:42:07.155Z,15.10
2023-01-21T03:44:33.692Z,15.47
2023-01-21T03:47:18.755Z,15.43
2023-01-21T03:49:50.111Z,15.93
2023-01-21T03:52:17.544Z,15.60
2023-01-21T03:54:46.794Z,15.83
2023-01-21T03:57:13.221Z,17.43
2023-01-21T03:59:39.629Z,16.67
2023-01-21T04:02:06.124Z,15.63
2023-01-21T04:04:32.564Z,17.13
2023-01-21T04:06:59.021Z,15.77
2023-01-21T04:09:25.432Z,14.90
2023-01-21T04:11:51.852Z,17.27
2023-01-21T04:14:18.259Z,16.33
2023-01-21T04:16:44.793Z,14.20
2023-01-21T04:19:11.214Z,14.63
2023-01-21T04:21:37.636Z,15.53
2023-01-21T04:24:04.539Z,15.70
2023-01-21T04:26:30.967Z,15.17
2023-01-21T04:28:57.366Z,15.90
2023-01-21T04:31:23.806Z,16.27
2023-01-21T04:33:50.235Z,15.03
2023-01-21T04:36:16.665Z,16.97
2023-01-21T04:38:43.181Z,16.13
2023-01-21T04:41:09.596Z,15.80
2023-01-21T04:43:36.060Z,14.63
2023-01-21T04:46:02.697Z,15.33
2023-01-21T04:48:29.427Z,15.20
2023-01-21T04:50:55.903Z,15.27
2023-01-21T04:53:22.325Z,14.80
2023-01-21T04:55:51.631Z,15.07
2023-01-21T04:58:18.642Z,15.57
2023-01-21T05:00:45.055Z,15.53
2023-01-21T05:03:11.503Z,15.33
2023-01-21T05:05:37.924Z,15.23
2023-01-21T05:08:04.371Z,14.80
2023-01-21T05:10:30.806Z,15.00
2023-01-21T05:12:57.222Z,15.10
2023-01-21T05:15:23.648Z,14.30
2023-01-21T05:17:50.058Z,14.77
2023-01-21T05:20:17.245Z,14.73
2023-01-21T05:22:47.634Z,15.50
2023-01-21T05:25:14.855Z,14.27
2023-01-21T05:27:41.329Z,14.63
2023-01-21T05:30:09.009Z,14.70
2023-01-21T05:32:36.574Z,14.37
2023-01-21T05:35:06.392Z,15.23
2023-01-21T05:37:32.870Z,14.27
2023-01-21T05:39:59.454Z,13.13
2023-01-21T05:42:25.917Z,15.13
2023-01-21T05:44:52.484Z,14.03
2023-01-21T05:47:19.016Z,13.73
2023-01-21T05:49:45.411Z,14.90
2023-01-21T05:52:11.908Z,14.80
2023-01-21T05:54:42.043Z,14.07
2023-01-21T05:57:12.662Z,13.27
2023-01-21T05:59:39.065Z,13.23
2023-01-21T06:02:05.489Z,13.33
2023-01-21T06:04:31.892Z,13.07
2023-01-21T06:06:58.349Z,13.57
2023-01-21T06:09:24.750Z,13.33
2023-01-21T06:11:51.176Z,12.67
2023-01-21T06:14:17.673Z,13.10
2023-01-21T06:16:44.088Z,12.83
2023-01-21T06:19:10.578Z,12.73
2023-01-21T06:21:36.974Z,12.20
2023-01-21T06:24:03.459Z,13.10
2023-01-21T06:26:29.864Z,13.13
2023-01-21T06:28:57.131Z,12.37
2023-01-21T06:31:24.079Z,12.60
2023-01-21T06:33:50.540Z,12.53
2023-01-21T06:36:16.971Z,12.53
2023-01-21T06:38:43.375Z,12.97
2023-01-21T06:41:09.915Z,12.17
2023-01-21T06:43:36.367Z,13.10
2023-01-21T06:46:02.837Z,13.60
2023-01-21T06:48:29.356Z,12.70
2023-01-21T06:50:55.860Z,13.07
2023-01-21T06:53:22.319Z,12.90
2023-01-21T06:55:48.768Z,13.73
2023-01-21T06:58:15.217Z,13.47
2023-01-21T07:00:42.180Z,11.80
2023-01-21T07:03:08.640Z,11.90
2023-01-21T07:05:35.032Z,11.47
2023-01-21T07:08:01.478Z,11.80
2023-01-21T07:10:27.908Z,10.63
2023-01-21T07:12:54.340Z,12.20
2023-01-21T07:15:20.744Z,10.90
2023-01-21T07:17:47.197Z,11.17
2023-01-21T07:20:13.614Z,11.40
2023-01-21T07:22:40.123Z,9.97
2023-01-21T07:25:07.095Z,10.70
2023-01-21T07:27:33.518Z,9.47
2023-01-21T07:29:59.931Z,10.23
2023-01-21T07:32:26.366Z,10.23
2023-01-21T07:34:52.765Z,11.13
2023-01-21T07:37:19.190Z,10.90
2023-01-21T07:39:45.579Z,9.93
2023-01-21T07:42:11.995Z,9.70
2023-01-21T07:44:38.410Z,9.93
2023-01-21T07:47:04.849Z,9.73
2023-01-21T07:49:31.268Z,9.73
2023-01-21T07:51:57.760Z,9.37
2023-01-21T07:54:24.222Z,9.03
2023-01-21T07:56:50.651Z,9.27
2023-01-21T07:59:17.090Z,9.40
2023-01-21T08:01:43.586Z,9.30
2023-01-21T08:04:10.144Z,9.37
2023-01-21T08:06:41.294Z,9.27
2023-01-21T08:09:09.088Z,8.53
2023-01-21T08:11:35.523Z,8.63
2023-01-21T08:14:01.931Z,9.13
2023-01-21T08:16:28.409Z,8.87
2023-01-21T08:18:54.852Z,8.83
2023-01-21T08:21:21.251Z,8.93
2023-01-21T08:23:47.694Z,8.20
2023-01-21T08:26:14.103Z,7.83
2023-01-21T08:28:40.562Z,9.07
2023-01-21T08:31:09.999Z,8.63
2023-01-21T08:33:36.875Z,8.37
2023-01-21T08:36:06.065Z,8.37
2023-01-21T08:38:33.561Z,9.23
2023-01-21T08:41:00.023Z,7.87
2023-01-21T08:43:26.894Z,9.43
2023-01-21T08:45:56.580Z,8.73
2023-01-21T08:48:23.296Z,8.33
2023-01-21T08:50:49.717Z,8.57
2023-01-21T08:53:16.200Z,8.07
2023-01-21T08:55:43.891Z,7.20
2023-01-21T08:58:10.324Z,7.77
2023-01-21T09:00:36.785Z,8.10
2023-01-21T09:03:03.348Z,8.67
2023-01-21T09:05:29.730Z,7.93
2023-01-21T09:07:58.096Z,7.90
2023-01-21T09:10:43.276Z,7.37
2023-01-21T09:13:10.368Z,7.70
2023-01-21T09:15:38.827Z,7.70
2023-01-21T09:18:05.354Z,7.83
2023-01-21T09:20:31.770Z,7.07
2023-01-21T09:22:58.893Z,6.60
2023-01-21T09:25:25.756Z,7.13
2023-01-21T09:27:52.349Z,7.33
2023-01-21T09:30:18.903Z,7.43
2023-01-21T09:32:45.316Z,8.07
2023-01-21T09:35:11.732Z,7.03
2023-01-21T09:37:38.474Z,6.97
2023-01-21T09:40:05.240Z,8.13
2023-01-21T09:42:32.609Z,8.43
2023-01-21T09:44:59.933Z,7.73
2023-01-21T09:47:36.813Z,7.67
2023-01-21T09:50:16.600Z,7.97
2023-01-21T09:52:47.909Z,8.10
2023-01-21T09:55:35.497Z,7.73
2023-01-21T09:58:13.851Z,7.00
2023-01-21T10:00:50.732Z,8.33
2023-01-21T10:03:23.856Z,8.07
2023-01-21T10:05:59.958Z,8.97
2023-01-21T10:09:01.721Z,8.87
2023-01-21T10:11:49.817Z,8.23
2023-01-21T10:14:46.752Z,8.87
2023-01-21T10:17:18.465Z,9.37
2023-01-21T10:20:06.205Z,8.40
2023-01-21T10:22:32.645Z,9.10
2023-01-21T10:25:28.971Z,9.63
2023-01-21T10:27:58.462Z,8.63
2023-01-21T10:30:32.052Z,10.47
2023-01-21T10:32:58.712Z,11.33
2023-01-21T10:36:00.539Z,11.57
2023-01-21T10:38:39.799Z,9.57
2023-01-21T10:41:28.574Z,10.40
2023-01-21T10:44:20.085Z,10.40
2023-01-21T10:47:06.658Z,11.40
2023-01-21T10:49:36.003Z,9.53
2023-01-21T10:52:39.935Z,11.03
2023-01-21T10:55:22.463Z,10.37
2023-01-21T10:58:01.536Z,10.20
2023-01-21T11:00:32.483Z,10.87
2023-01-21T11:03:08.979Z,11.00
2023-01-21T11:05:35.557Z,10.93
2023-01-21T11:08:02.335Z,11.43
2023-01-21T11:10:28.783Z,10.93
2023-01-21T11:12:55.701Z,12.10
2023-01-21T11:15:23.225Z,11.93
2023-01-21T11:17:53.671Z,11.23
2023-01-21T11:20:23.677Z,10.73
2023-01-21T11:22:50.767Z,10.87
2023-01-21T11:25:34.946Z,11.10
2023-01-21T11:28:01.852Z,11.20
2023-01-21T11:30:49.636Z,11.97
2023-01-21T11:33:24.942Z,11.20
2023-01-21T11:35:52.269Z,10.60
2023-01-21T11:38:33.884Z,11.57
2023-01-21T11:41:22.250Z,11.10
2023-01-21T11:43:54.828Z,10.90
2023-01-21T11:46:31.942Z,11.33
2023-01-21T11:49:07.496Z,12.23
2023-01-21T11:51:39.635Z,11.90
2023-01-21T11:54:19.314Z,19.60
2023-01-21T11:57:02.711Z,12.40
2023-01-21T11:59:41.645Z,12.33
2023-01-21T12:02:15.774Z,12.13
2023-01-21T12:04:51.247Z,12.73
2023-01-21T12:07:22.822Z,15.37
2023-01-21T12:09:51.305Z,17.77
2023-01-21T12:12:34.916Z,13.47
2023-01-21T12:15:15.916Z,10.90
2023-01-21T12:17:52.211Z,11.50
2023-01-21T12:20:45.630Z,10.80
2023-01-21T12:23:23.142Z,11.20
2023-01-21T12:25:59.001Z,11.60
2023-01-21T12:28:49.096Z,11.10
2023-01-21T12:31:23.765Z,10.57
2023-01-21T12:34:10.661Z,11.47
2023-01-21T12:36:42.111Z,11.50
2023-01-21T12:39:29.992Z,11.57
2023-01-21T12:42:17.945Z,11.63
2023-01-21T12:44:51.941Z,10.67
2023-01-21T12:47:40.044Z,11.07
2023-01-21T12:50:23.835Z,11.50
2023-01-21T12:53:27.470Z,10.97
2023-01-21T12:56:02.744Z,12.23
2023-01-21T12:58:37.309Z,11.67
2023-01-21T13:01:08.678Z,10.80
2023-01-21T13:03:59.878Z,11.93
2023-01-21T13:06:53.024Z,11.50
2023-01-21T13:09:35.505Z,11.33
2023-01-21T13:12:06.496Z,11.63
2023-01-21T13:14:36.523Z,12.47
2023-01-21T13:17:07.154Z,11.30
2023-01-21T13:19:34.267Z,9.53
2023-01-21T13:22:09.649Z,10.57
2023-01-21T13:25:13.896Z,10.40
2023-01-21T13:27:47.596Z,9.83
2023-01-21T13:30:30.608Z,10.00
2023-01-21T13:33:05.143Z,10.43
2023-01-21T13:35:50.917Z,10.63
2023-01-21T13:38:31.155Z,9.07
2023-01-21T13:41:03.675Z,9.93
2023-01-21T13:43:54.639Z,9.83
2023-01-21T13:46:33.401Z,10.07
2023-01-21T13:49:14.998Z,9.17
2023-01-21T13:51:56.644Z,9.80
2023-01-21T13:54:29.301Z,9.63
2023-01-21T13:57:01.555Z,9.50
2023-01-21T13:59:32.364Z,10.67
2023-01-21T14:02:05.852Z,10.50
2023-01-21T14:04:40.649Z,9.10
2023-01-21T14:07:18.826Z,8.53
2023-01-21T14:09:51.828Z,8.57
2023-01-21T14:12:55.640Z,7.57
2023-01-21T14:15:34.499Z,8.63
2023-01-21T14:18:16.936Z,8.77
2023-01-21T14:20:43.235Z,8.50
2023-01-21T14:23:41.557Z,8.40
2023-01-21T14:26:33.413Z,8.10
2023-01-21T14:29:22.666Z,9.40
2023-01-21T14:32:21.918Z,11.87
2023-01-21T14:35:00.460Z,9.13
2023-01-21T14:37:31.266Z,8.93
2023-01-21T14:40:07.061Z,8.50
2023-01-21T14:42:49.106Z,8.63
2023-01-21T14:45:19.223Z,9.03
2023-01-21T14:47:47.804Z,7.80
2023-01-21T14:50:50.010Z,8.53
2023-01-21T14:53:22.930Z,8.17
2023-01-21T14:56:10.573Z,8.60
2023-01-21T14:58:37.156Z,8.63
2023-01-21T15:01:04.587Z,9.80
2023-01-21T15:03:31.517Z,10.37
2023-01-21T15:06:04.562Z,8.80
2023-01-21T15:08:45.492Z,9.47
2023-01-21T15:11:21.689Z,9.57
2023-01-21T15:14:13.855Z,10.27
2023-01-21T15:16:41.628Z,9.23
2023-01-21T15:19:07.991Z,9.57
2023-01-21T15:22:00.761Z,8.93
2023-01-21T15:24:40.114Z,9.10
2023-01-21T15:27:19.814Z,9.70
2023-01-21T15:29:58.766Z,9.23
2023-01-21T15:32:31.285Z,9.87
2023-01-21T15:35:11.175Z,10.03
2023-01-21T15:37:39.490Z,11.03
2023-01-21T15:40:19.450Z,10.07
2023-01-21T15:42:54.271Z,9.40
2023-01-21T15:45:41.361Z,9.47
2023-01-21T15:48:40.857Z,8.67
2023-01-21T15:51:39.227Z,9.43
2023-01-21T15:54:18.388Z,9.60
2023-01-21T15:56:57.209Z,9.03
2023-01-21T15:59:50.018Z,9.43
2023-01-21T16:02:24.632Z,8.50
2023-01-21T16:05:21.044Z,9.10
2023-01-21T16:07:59.677Z,9.27
2023-01-21T16:10:50.566Z,8.60
2023-01-21T16:13:28.049Z,8.90
2023-01-21T16:16:17.358Z,8.03
2023-01-21T16:19:00.133Z,8.70
2023-01-21T16:21:33.786Z,8.87
2023-01-21T16:24:03.328Z,8.67
2023-01-21T16:26:32.973Z,9.67
2023-01-21T16:28:59.632Z,9.33
2023-01-21T16:31:26.179Z,9.07
2023-01-21T16:33:53.694Z,8.00
2023-01-21T16:36:20.192Z,8.20
2023-01-21T16:38:47.164Z,7.60
2023-01-21T16:41:16.497Z,6.80
2023-01-21T16:44:01.872Z,7.00
2023-01-21T16:46:36.220Z,7.27
2023-01-21T16:49:04.981Z,7.03
2023-01-21T16:51:34.118Z,6.23
2023-01-21T16:54:23.672Z,7.03
2023-01-21T16:57:01.740Z,6.43
2023-01-21T16:59:42.624Z,5.87
2023-01-21T17:02:18.585Z,5.43
2023-01-21T17:04:45.037Z,5.67
2023-01-21T17:07:22.525Z,5.10
2023-01-21T17:10:07.195Z,5.40
2023-01-21T17:12:36.238Z,4.67
2023-01-21T17:15:13.419Z,4.30
2023-01-21T17:17:39.842Z,4.03
2023-01-21T17:20:06.689Z,4.93
2023-01-21T17:22:34.602Z,4.67
2023-01-21T17:25:23.291Z,4.27
2023-01-21T17:27:49.899Z,3.97
2023-01-21T17:30:19.484Z,3.67
2023-01-21T17:32:53.875Z,4.47
2023-01-21T17:35:23.161Z,4.43
2023-01-21T17:37:58.286Z,4.53
2023-01-21T17:40:29.853Z,3.73
2023-01-21T17:42:57.787Z,4.47
2023-01-21T17:45:30.181Z,4.47
2023-01-21T17:48:09.421Z,4.70
2023-01-21T17:50:37.558Z,4.67
2023-01-21T17:53:07.130Z,4.40
2023-01-21T17:55:38.325Z,4.90
2023-01-21T17:58:36.120Z,4.43
2023-01-21T18:01:04.275Z,4.60
2023-01-21T18:03:30.826Z,4.13
2023-01-21T18:05:57.457Z,4.23
2023-01-21T18:08:24.570Z,4.37
2023-01-21T18:10:50.973Z,4.43
2023-01-21T18:13:19.300Z,3.77
2023-01-21T18:15:48.314Z,4.70
2023-01-21T18:18:23.792Z,4.97
2023-01-21T18:20:50.189Z,4.37
2023-01-21T18:23:18.085Z,4.80
2023-01-21T18:25:48.867Z,5.20
2023-01-21T18:28:21.405Z,4.90
2023-01-21T18:30:48.435Z,5.10
2023-01-21T18:33:15.246Z,4.70
2023-01-21T18:35:44.587Z,4.83
2023-01-21T18:38:27.318Z,5.10
2023-01-21T18:40:55.009Z,5.00
2023-01-21T18:43:21.520Z,4.30
2023-01-21T18:45:48.046Z,5.03
2023-01-21T18:48:16.092Z,4.97
2023-01-21T18:50:42.632Z,4.57
2023-01-21T18:53:09.235Z,5.10
2023-01-21T18:55:35.760Z,5.30
2023-01-21T18:58:04.134Z,5.37
2023-01-21T19:00:32.355Z,5.70
2023-01-21T19:03:00.990Z,5.23
2023-01-21T19:05:30.608Z,5.83
2023-01-21T19:07:57.343Z,5.70
2023-01-21T19:10:23.767Z,5.30
2023-01-21T19:12:50.381Z,5.93
2023-01-21T19:15:19.548Z,6.20
2023-01-21T19:17:46.439Z,6.20
2023-01-21T19:20:24.043Z,6.23
2023-01-21T19:22:51.314Z,6.33
2023-01-21T19:25:18.585Z,6.13
2023-01-21T19:27:50.289Z,6.37
2023-01-21T19:30:21.394Z,6.23
2023-01-21T19:32:48.523Z,6.40
2023-01-21T19:35:20.158Z,6.97
2023-01-21T19:37:50.416Z,6.33
2023-01-21T19:40:19.404Z,6.43
2023-01-21T19:42:46.511Z,6.37
2023-01-21T19:45:14.047Z,6.47
2023-01-21T19:47:42.030Z,6.40
2023-01-21T19:50:17.729Z,6.40
2023-01-21T19:52:45.041Z,6.67
2023-01-21T19:55:16.656Z,6.43
2023-01-21T19:57:45.435Z,6.23
2023-01-21T20:00:23.686Z,6.33
2023-01-21T20:02:50.112Z,6.33
2023-01-21T20:05:16.940Z,5.87
2023-01-21T20:07:44.604Z,5.83
2023-01-21T20:10:15.851Z,6.83
2023-01-21T20:12:43.898Z,5.73
2023-01-21T20:15:14.773Z,6.40
2023-01-21T20:17:42.665Z,5.80
2023-01-21T20:20:19.342Z,5.93
2023-01-21T20:22:46.213Z,5.97
2023-01-21T20:25:22.973Z,6.40
2023-01-21T20:27:57.896Z,5.97
2023-01-21T20:30:27.335Z,5.80
2023-01-21T20:32:54.099Z,6.00
2023-01-21T20:35:21.199Z,5.67
2023-01-21T20:37:49.019Z,6.30
2023-01-21T20:40:19.192Z,5.77
2023-01-21T20:42:46.747Z,5.53
2023-01-21T20:45:14.624Z,5.67
2023-01-21T20:47:50.046Z,5.20
2023-01-21T20:50:22.762Z,5.60
2023-01-21T20:52:49.833Z,5.83
2023-01-21T20:55:20.759Z,5.07
2023-01-21T20:57:47.626Z,5.33
2023-01-21T21:00:16.891Z,5.00
2023-01-21T21:02:43.452Z,4.87
2023-01-21T21:05:10.392Z,5.27
2023-01-21T21:07:36.832Z,4.77
2023-01-21T21:10:03.916Z,5.10
2023-01-21T21:12:30.517Z,4.43
2023-01-21T21:14:56.958Z,4.57
2023-01-21T21:17:23.486Z,5.47
2023-01-21T21:19:49.887Z,4.73
2023-01-21T21:22:16.321Z,5.10
2023-01-21T21:24:43.349Z,4.60
2023-01-21T21:27:12.761Z,4.57
2023-01-21T21:29:39.148Z,4.30
2023-01-21T21:32:06.762Z,5.33
2023-01-21T21:34:34.121Z,4.83
2023-01-21T21:37:00.544Z,4.53
2023-01-21T21:39:26.960Z,4.60
2023-01-21T21:42:25.635Z,4.93
2023-01-21T21:44:52.046Z,4.70
2023-01-21T21:47:37.191Z,4.80
2023-01-21T21:50:03.814Z,4.73
2023-01-21T21:52:31.187Z,4.50
2023-01-21T21:54:57.705Z,4.47
2023-01-21T21:57:24.119Z,4.83
2023-01-21T21:59:50.539Z,4.27
2023-01-21T22:02:17.016Z,4.63
2023-01-21T22:04:43.419Z,4.80
2023-01-21T22:07:09.881Z,4.93
2023-01-21T22:09:36.278Z,4.10
2023-01-21T22:12:02.738Z,4.07
2023-01-21T22:14:29.239Z,4.03
2023-01-21T22:16:55.710Z,4.70
2023-01-21T22:19:22.250Z,4.27
2023-01-21T22:21:48.667Z,4.43
2023-01-21T22:24:15.706Z,4.60
2023-01-21T22:26:42.116Z,3.77
2023-01-21T22:29:08.678Z,3.80
2023-01-21T22:31:35.360Z,4.67
2023-01-21T22:34:01.905Z,4.60
2023-01-21T22:36:29.782Z,4.20
2023-01-21T22:38:56.204Z,3.90
2023-01-21T22:41:23.469Z,3.90
2023-01-21T22:43:50.505Z,4.00
2023-01-21T22:46:22.749Z,3.90
2023-01-21T22:48:49.654Z,3.87
2023-01-21T22:51:18.454Z,4.27
2023-01-21T22:53:45.382Z,5.47
2023-01-21T22:56:13.416Z,4.40
2023-01-21T22:58:39.843Z,4.50
2023-01-21T23:01:06.609Z,3.90
2023-01-21T23:03:33.095Z,4.10
2023-01-21T23:06:07.996Z,3.97
2023-01-21T23:08:36.679Z,4.67
2023-01-21T23:11:04.848Z,4.33
2023-01-21T23:13:32.268Z,3.63
2023-01-21T23:15:58.832Z,4.40
2023-01-21T23:18:26.876Z,4.23
2023-01-21T23:20:53.316Z,4.47
2023-01-21T23:23:19.777Z,3.70
2023-01-21T23:25:46.310Z,4.33
2023-01-21T23:28:13.857Z,4.70
2023-01-21T23:30:40.785Z,4.27
2023-01-21T23:33:07.528Z,4.20
2023-01-21T23:35:35.615Z,4.33
2023-01-21T23:38:02.857Z,4.63
2023-01-21T23:40:29.294Z,4.27
2023-01-21T23:42:55.742Z,4.23
2023-01-21T23:45:22.227Z,4.90
2023-01-21T23:47:48.761Z,3.63
2023-01-21T23:50:15.554Z,3.90
2023-01-21T23:52:42.055Z,4.30
2023-01-21T23:55:09.798Z,5.03
2023-01-21T23:57:36.528Z,4.70
